createdAt,value
2023-02-15T00:00:12.198Z,10.45
2023-02-15T00:02:40.656Z,11.10
2023-02-15T00:05:09.703Z,9.45
2023-02-15T00:07:37.624Z,10.85
2023-02-15T00:10:06.722Z,10.60
2023-02-15T00:12:35.038Z,10.93
2023-02-15T00:15:04.993Z,11.70
2023-02-15T00:17:32.888Z,11.02
2023-02-15T00:20:00.810Z,11.27
2023-02-15T00:22:30.794Z,10.50
2023-02-15T00:24:58.883Z,10.55
2023-02-15T00:27:26.864Z,11.32
2023-02-15T00:29:54.772Z,10.48
2023-02-15T00:32:24.414Z,11.20
2023-02-15T00:34:52.409Z,10.02
2023-02-15T00:37:20.414Z,10.40
2023-02-15T00:39:49.130Z,11.00
2023-02-15T00:42:18.769Z,10.73
2023-02-15T00:44:47.013Z,10.05
2023-02-15T00:47:14.947Z,11.32
2023-02-15T00:49:44.249Z,12.18
2023-02-15T00:52:12.268Z,12.10
2023-02-15T00:54:40.925Z,10.02
2023-02-15T00:57:08.838Z,10.18
2023-02-15T00:59:36.793Z,11.52
2023-02-15T01:02:04.996Z,11.50
2023-02-15T01:04:32.983Z,11.20
2023-02-15T01:07:02.883Z,11.13
2023-02-15T01:09:31.184Z,11.70
2023-02-15T01:11:59.134Z,10.35
2023-02-15T01:14:28.222Z,10.95
2023-02-15T01:16:56.208Z,10.30
2023-02-15T01:19:24.095Z,10.32
2023-02-15T01:21:52.084Z,11.20
2023-02-15T01:24:21.525Z,11.07
2023-02-15T01:26:49.716Z,10.77
2023-02-15T01:29:17.747Z,11.55
2023-02-15T01:31:45.761Z,10.13
2023-02-15T01:34:16.003Z,10.75
2023-02-15T01:36:43.884Z,11.23
2023-02-15T01:39:13.222Z,11.55
2023-02-15T01:41:42.576Z,11.27
2023-02-15T01:44:43.462Z,10.98
2023-02-15T01:47:17.130Z,10.25
2023-02-15T01:49:47.662Z,12.07
2023-02-15T01:52:19.639Z,12.20
2023-02-15T01:54:49.248Z,11.63
2023-02-15T01:57:24.477Z,10.35
2023-02-15T01:59:58.558Z,11.35
2023-02-15T02:02:28.730Z,11.70
2023-02-15T02:05:03.739Z,10.77
2023-02-15T02:07:36.891Z,10.70
2023-02-15T02:10:06.038Z,12.10
2023-02-15T02:12:40.565Z,11.95
2023-02-15T02:15:11.088Z,12.50
2023-02-15T02:17:52.164Z,9.77
2023-02-15T02:20:32.401Z,11.93
2023-02-15T02:23:29.421Z,11.18
2023-02-15T02:26:44.475Z,12.95
2023-02-15T02:29:51.552Z,13.80
2023-02-15T02:32:48.898Z,12.98
2023-02-15T02:35:28.773Z,12.82
2023-02-15T02:38:05.990Z,12.95
2023-02-15T02:40:45.076Z,14.05
2023-02-15T02:43:20.467Z,12.65
2023-02-15T02:45:55.801Z,13.27
2023-02-15T02:48:26.956Z,15.13
2023-02-15T02:50:56.368Z,14.38
2023-02-15T02:53:24.550Z,16.88
2023-02-15T02:55:57.422Z,14.95
2023-02-15T02:58:33.718Z,14.63
2023-02-15T03:01:06.988Z,16.20
2023-02-15T03:03:40.116Z,14.13
2023-02-15T03:06:13.360Z,15.02
2023-02-15T03:08:46.251Z,14.35
2023-02-15T03:11:17.804Z,14.85
2023-02-15T03:13:48.138Z,14.07
2023-02-15T03:16:28.515Z,15.55
2023-02-15T03:18:59.277Z,15.73
2023-02-15T03:21:34.489Z,14.52
2023-02-15T03:24:09.582Z,15.10
2023-02-15T03:26:40.565Z,15.93
2023-02-15T03:29:11.300Z,14.65
2023-02-15T03:31:42.865Z,14.43
2023-02-15T03:34:13.410Z,14.20
2023-02-15T03:36:49.055Z,14.57
2023-02-15T03:39:23.167Z,14.35
2023-02-15T03:41:58.700Z,15.88
2023-02-15T03:44:30.859Z,16.90
2023-02-15T03:47:06.872Z,14.77
2023-02-15T03:49:42.890Z,16.38
2023-02-15T03:52:15.759Z,13.73
2023-02-15T03:54:45.724Z,15.45
2023-02-15T03:57:35.356Z,15.18
2023-02-15T04:00:23.336Z,13.68
2023-02-15T04:03:21.197Z,15.00
2023-02-15T04:05:49.206Z,16.30
2023-02-15T04:08:18.740Z,14.30
2023-02-15T04:10:55.941Z,15.80
2023-02-15T04:13:31.862Z,14.88
2023-02-15T04:18:54.545Z,12.80
2023-02-15T04:21:44.815Z,21.13
2023-02-15T04:24:32.833Z,14.88
2023-02-15T04:27:01.315Z,15.25
2023-02-15T04:29:30.255Z,15.30
2023-02-15T04:32:00.089Z,13.07
2023-02-15T04:34:28.562Z,15.50
2023-02-15T04:36:56.527Z,15.18
2023-02-15T04:39:25.978Z,14.30
2023-02-15T04:41:53.891Z,12.57
2023-02-15T04:44:21.854Z,13.40
2023-02-15T04:46:49.825Z,16.23
2023-02-15T04:49:17.921Z,14.32
2023-02-15T04:51:45.824Z,15.88
2023-02-15T04:54:13.746Z,13.80
2023-02-15T04:56:43.301Z,13.95
2023-02-15T04:59:12.217Z,14.75
2023-02-15T05:01:40.228Z,13.25
2023-02-15T05:04:08.159Z,14.02
2023-02-15T05:06:36.415Z,14.57
2023-02-15T05:09:04.603Z,16.13
2023-02-15T05:11:32.498Z,13.70
2023-02-15T05:14:01.756Z,14.80
2023-02-15T05:16:29.727Z,14.38
2023-02-15T05:18:57.677Z,15.15
2023-02-15T05:21:25.708Z,12.93
2023-02-15T05:23:53.567Z,14.00
2023-02-15T05:26:41.532Z,14.25
2023-02-15T05:29:11.638Z,14.30
2023-02-15T05:31:40.268Z,15.27
2023-02-15T05:34:08.340Z,15.70
2023-02-15T05:36:36.345Z,13.55
2023-02-15T05:39:04.967Z,14.45
2023-02-15T05:41:32.908Z,13.95
2023-02-15T05:44:00.803Z,14.32
2023-02-15T05:46:30.184Z,13.93
2023-02-15T05:48:58.115Z,13.70
2023-02-15T05:51:26.044Z,14.70
2023-02-15T05:53:53.933Z,13.90
2023-02-15T05:56:21.836Z,15.45
2023-02-15T05:58:49.759Z,15.77
2023-02-15T06:01:19.477Z,15.02
2023-02-15T06:03:48.831Z,14.68
2023-02-15T06:06:17.057Z,14.82
2023-02-15T06:08:45.421Z,13.65
2023-02-15T06:11:13.517Z,15.00
2023-02-15T06:13:41.436Z,16.38
2023-02-15T06:16:09.474Z,15.93
2023-02-15T06:18:37.516Z,15.50
2023-02-15T06:21:06.817Z,15.30
2023-02-15T06:23:34.775Z,16.75
2023-02-15T06:26:02.854Z,15.90
2023-02-15T06:28:30.917Z,17.67
2023-02-15T06:30:58.993Z,19.55
2023-02-15T06:33:27.006Z,23.13
2023-02-15T06:35:55.011Z,21.88
2023-02-15T06:38:24.549Z,19.33
2023-02-15T06:40:52.473Z,18.67
2023-02-15T06:43:20.466Z,19.48
2023-02-15T06:45:48.425Z,19.95
2023-02-15T06:48:16.394Z,16.52
2023-02-15T06:50:44.314Z,15.77
2023-02-15T06:53:12.308Z,17.85
2023-02-15T06:55:41.627Z,16.75
2023-02-15T06:58:09.514Z,17.67
2023-02-15T07:00:40.481Z,16.90
2023-02-15T07:03:08.869Z,17.05
2023-02-15T07:05:36.847Z,20.52
2023-02-15T07:08:05.106Z,18.10
2023-02-15T07:10:33.014Z,16.48
2023-02-15T07:13:01.484Z,18.00
2023-02-15T07:15:29.383Z,17.92
2023-02-15T07:17:58.742Z,16.75
2023-02-15T07:20:26.745Z,18.55
2023-02-15T07:22:54.684Z,20.25
2023-02-15T07:25:22.686Z,19.48
2023-02-15T07:27:50.579Z,18.23
2023-02-15T07:30:19.910Z,17.80
2023-02-15T07:33:06.048Z,18.42
2023-02-15T07:35:33.985Z,18.77
2023-02-15T07:38:02.310Z,18.45
2023-02-15T07:40:32.489Z,21.95
2023-02-15T07:43:02.423Z,18.23
2023-02-15T07:45:32.705Z,18.02
2023-02-15T07:48:02.490Z,18.08
2023-02-15T07:50:30.461Z,17.48
2023-02-15T07:52:59.085Z,19.98
2023-02-15T07:55:27.113Z,17.88
2023-02-15T07:57:55.829Z,17.77
2023-02-15T08:00:25.782Z,16.25
2023-02-15T08:03:10.949Z,16.45
2023-02-15T08:05:39.307Z,17.20
2023-02-15T08:08:07.697Z,18.85
2023-02-15T08:10:53.449Z,18.45
2023-02-15T08:13:21.381Z,17.17
2023-02-15T08:15:52.659Z,14.18
2023-02-15T08:18:21.920Z,19.33
2023-02-15T08:20:51.863Z,17.83
2023-02-15T08:23:21.693Z,28.63
2023-02-15T08:25:49.580Z,18.30
2023-02-15T08:28:17.522Z,16.73
2023-02-15T08:30:45.378Z,16.73
2023-02-15T08:33:13.371Z,20.33
2023-02-15T08:35:42.870Z,45.17
2023-02-15T08:38:10.854Z,65.70
2023-02-15T08:40:39.184Z,22.75
2023-02-15T08:43:08.024Z,29.50
2023-02-15T08:45:35.931Z,34.17
2023-02-15T08:48:03.968Z,14.95
2023-02-15T08:50:31.829Z,15.73
2023-02-15T08:53:01.536Z,14.65
2023-02-15T08:55:29.467Z,15.48
2023-02-15T08:57:57.484Z,15.98
2023-02-15T09:00:30.343Z,15.30
2023-02-15T09:02:58.311Z,17.38
2023-02-15T09:05:26.303Z,16.75
2023-02-15T09:07:55.603Z,14.90
2023-02-15T09:10:24.908Z,17.00
2023-02-15T09:12:52.873Z,14.40
2023-02-15T09:15:20.830Z,15.75
2023-02-15T09:17:48.784Z,15.95
2023-02-15T09:20:16.850Z,16.30
2023-02-15T09:22:44.783Z,17.80
2023-02-15T09:25:14.454Z,15.52
2023-02-15T09:27:44.248Z,17.92
2023-02-15T09:30:13.654Z,14.18
2023-02-15T09:32:41.621Z,14.38
2023-02-15T09:35:09.594Z,15.30
2023-02-15T09:37:40.776Z,17.25
2023-02-15T09:40:09.176Z,15.50
2023-02-15T09:42:58.181Z,16.33
2023-02-15T09:45:36.945Z,14.48
2023-02-15T09:48:40.311Z,14.88
2023-02-15T09:51:40.777Z,13.75
2023-02-15T09:54:21.807Z,17.63
2023-02-15T09:56:53.902Z,16.00
2023-02-15T09:59:37.032Z,13.82
2023-02-15T10:02:21.665Z,13.18
2023-02-15T10:05:02.361Z,13.98
2023-02-15T10:07:46.628Z,13.88
2023-02-15T10:10:26.416Z,13.93
2023-02-15T10:13:04.931Z,15.45
2023-02-15T10:15:53.009Z,13.80
2023-02-15T10:18:49.431Z,14.15
2023-02-15T10:21:26.862Z,19.75
2023-02-15T10:24:14.347Z,69.47
2023-02-15T10:26:46.343Z,16.23
2023-02-15T10:29:29.901Z,21.70
2023-02-15T10:32:08.182Z,25.65
2023-02-15T10:34:40.642Z,28.35
2023-02-15T10:37:56.199Z,13.80
2023-02-15T10:40:34.763Z,17.23
2023-02-15T10:43:31.242Z,14.85
2023-02-15T10:46:13.007Z,15.68
2023-02-15T10:48:56.681Z,13.35
2023-02-15T10:51:35.285Z,11.75
2023-02-15T10:54:16.225Z,12.15
2023-02-15T10:56:54.138Z,13.90
2023-02-15T10:59:44.851Z,14.68
2023-02-15T11:02:20.863Z,11.80
2023-02-15T11:05:00.762Z,12.38
2023-02-15T11:07:35.153Z,10.95
2023-02-15T11:10:18.165Z,11.07
2023-02-15T11:12:48.924Z,10.95
2023-02-15T11:15:32.593Z,11.38
2023-02-15T11:18:05.925Z,10.15
2023-02-15T11:20:39.134Z,11.80
2023-02-15T11:23:17.260Z,14.07
2023-02-15T11:25:47.956Z,11.18
2023-02-15T11:28:21.693Z,10.35
2023-02-15T11:30:53.217Z,10.65
2023-02-15T11:33:27.147Z,11.88
2023-02-15T11:36:01.614Z,10.73
2023-02-15T11:41:04.730Z,11.10
2023-02-15T11:43:38.996Z,11.68
2023-02-15T11:46:07.638Z,10.18
2023-02-15T11:48:35.694Z,10.18
2023-02-15T11:51:13.702Z,8.55
2023-02-15T11:53:41.808Z,9.52
2023-02-15T11:56:16.387Z,9.05
2023-02-15T12:01:41.879Z,8.52
2023-02-15T12:04:32.776Z,9.18
2023-02-15T12:07:27.274Z,12.73
2023-02-15T12:10:07.945Z,10.52
2023-02-15T12:12:37.373Z,11.23
2023-02-15T12:15:08.597Z,17.10
2023-02-15T12:17:41.455Z,10.48
2023-02-15T12:20:26.260Z,12.95
2023-02-15T12:25:31.307Z,8.68
2023-02-15T12:27:59.989Z,8.88
2023-02-15T12:30:34.418Z,8.80
2023-02-15T12:38:36.791Z,8.50
2023-02-15T12:41:07.504Z,8.88
2023-02-15T12:43:39.634Z,8.52
2023-02-15T12:46:23.921Z,8.25
2023-02-15T12:49:08.633Z,9.02
2023-02-15T12:54:36.708Z,9.00
2023-02-15T12:57:23.918Z,8.98
2023-02-15T12:59:53.507Z,8.18
2023-02-15T13:02:26.481Z,9.27
2023-02-15T13:04:55.873Z,8.57
2023-02-15T13:07:25.163Z,8.20
2023-02-15T13:09:55.153Z,8.32
2023-02-15T13:12:27.531Z,9.98
2023-02-15T13:15:00.149Z,8.73
2023-02-15T13:17:32.068Z,7.90
2023-02-15T13:20:08.276Z,14.10
2023-02-15T13:22:45.291Z,8.63
2023-02-15T13:25:22.094Z,9.60
2023-02-15T13:27:55.116Z,8.73
2023-02-15T13:30:27.376Z,8.75
2023-02-15T13:33:00.417Z,9.32
2023-02-15T13:35:39.294Z,8.63
2023-02-15T13:38:31.169Z,8.93
2023-02-15T13:41:06.053Z,8.25
2023-02-15T13:43:45.855Z,8.82
2023-02-15T13:46:26.180Z,8.10
2023-02-15T13:49:05.293Z,8.60
2023-02-15T13:51:41.426Z,7.90
2023-02-15T13:54:50.709Z,8.32
2023-02-15T13:57:37.724Z,7.70
2023-02-15T14:00:21.117Z,7.90
2023-02-15T14:03:07.809Z,8.88
2023-02-15T14:05:52.117Z,9.93
2023-02-15T14:08:28.975Z,7.53
2023-02-15T14:11:04.846Z,9.32
2023-02-15T14:14:08.352Z,7.00
2023-02-15T14:17:04.286Z,8.43
2023-02-15T14:19:39.796Z,8.02
2023-02-15T14:22:17.042Z,8.65
2023-02-15T14:24:54.652Z,8.10
2023-02-15T14:27:29.685Z,7.72
2023-02-15T14:30:02.302Z,7.63
2023-02-15T14:32:36.392Z,7.43
2023-02-15T14:35:05.791Z,8.65
2023-02-15T14:37:43.918Z,8.63
2023-02-15T14:40:39.098Z,8.38
2023-02-15T14:43:14.132Z,8.60
2023-02-15T14:45:51.836Z,7.47
2023-02-15T14:48:25.241Z,7.32
2023-02-15T14:50:53.309Z,9.85
2023-02-15T14:53:38.374Z,8.13
2023-02-15T14:56:20.128Z,7.22
2023-02-15T14:58:59.795Z,9.20
2023-02-15T15:01:31.711Z,8.57
2023-02-15T15:04:03.182Z,8.13
2023-02-15T15:06:33.593Z,6.88
2023-02-15T15:09:12.362Z,7.88
2023-02-15T15:11:47.028Z,8.43
2023-02-15T15:14:39.754Z,7.88
2023-02-15T15:17:12.455Z,8.05
2023-02-15T15:20:00.933Z,8.38
2023-02-15T15:22:30.452Z,8.05
2023-02-15T15:24:59.516Z,7.55
2023-02-15T15:27:51.917Z,7.25
2023-02-15T15:31:04.227Z,8.18
2023-02-15T15:34:05.857Z,7.32
2023-02-15T15:37:07.970Z,7.15
2023-02-15T15:40:23.255Z,6.43
2023-02-15T15:42:59.690Z,6.70
2023-02-15T15:45:50.556Z,6.82
2023-02-15T15:48:31.581Z,6.82
2023-02-15T15:51:03.577Z,6.70
2023-02-15T15:53:40.974Z,7.28
2023-02-15T15:56:13.732Z,8.02
2023-02-15T15:58:46.855Z,7.32
2023-02-15T16:01:15.820Z,7.70
2023-02-15T16:03:51.938Z,7.18
2023-02-15T16:06:33.883Z,8.32
2023-02-15T16:11:43.365Z,8.60
2023-02-15T16:14:15.668Z,8.07
2023-02-15T16:16:51.487Z,10.70
2023-02-15T16:19:29.084Z,13.70
2023-02-15T16:22:01.898Z,11.13
2023-02-15T16:24:56.865Z,8.27
2023-02-15T16:27:36.888Z,8.40
2023-02-15T16:30:29.295Z,7.40
2023-02-15T16:33:06.722Z,7.28
2023-02-15T16:35:35.867Z,6.80
2023-02-15T16:38:06.039Z,7.32
2023-02-15T16:40:48.960Z,8.20
2023-02-15T16:43:25.526Z,9.30
2023-02-15T16:45:57.668Z,8.27
2023-02-15T16:48:28.663Z,8.88
2023-02-15T16:50:59.797Z,7.32
2023-02-15T16:53:30.802Z,7.57
2023-02-15T16:56:00.878Z,7.72
2023-02-15T16:58:33.413Z,7.88
2023-02-15T17:01:03.626Z,10.07
2023-02-15T17:03:34.742Z,9.55
2023-02-15T17:06:04.942Z,9.70
2023-02-15T17:08:35.636Z,9.88
2023-02-15T17:11:11.611Z,8.73
2023-02-15T17:13:40.518Z,8.73
2023-02-15T17:16:30.488Z,9.52
2023-02-15T17:19:00.257Z,8.90
2023-02-15T17:21:34.293Z,8.32
2023-02-15T17:24:05.879Z,8.63
2023-02-15T17:26:36.142Z,9.25
2023-02-15T17:29:14.326Z,9.43
2023-02-15T17:31:42.604Z,8.02
2023-02-15T17:34:45.501Z,8.88
2023-02-15T17:37:14.408Z,8.68
2023-02-15T17:39:42.516Z,9.50
2023-02-15T17:42:10.522Z,10.10
2023-02-15T17:44:38.456Z,11.85
2023-02-15T17:47:06.575Z,9.95
2023-02-15T17:49:35.308Z,9.27
2023-02-15T17:52:05.203Z,10.13
2023-02-15T17:54:50.630Z,13.88
2023-02-15T17:57:18.616Z,11.43
2023-02-15T18:00:11.711Z,10.90
2023-02-15T18:03:00.506Z,10.95
2023-02-15T18:05:45.889Z,10.98
2023-02-15T18:08:36.345Z,9.90
2023-02-15T18:11:22.112Z,10.52
2023-02-15T18:13:52.704Z,10.13
2023-02-15T18:16:24.758Z,10.23
2023-02-15T18:18:56.835Z,10.23
2023-02-15T18:21:25.636Z,9.90
2023-02-15T18:23:54.995Z,10.88
2023-02-15T18:26:26.658Z,9.93
2023-02-15T18:28:54.690Z,11.18
2023-02-15T18:31:25.079Z,11.93
2023-02-15T18:33:55.690Z,10.95
2023-02-15T18:36:27.938Z,11.05
2023-02-15T18:38:57.868Z,11.55
2023-02-15T18:41:26.244Z,11.65
2023-02-15T18:43:55.378Z,11.43
2023-02-15T18:46:23.588Z,10.80
2023-02-15T18:48:51.560Z,10.95
2023-02-15T18:51:21.830Z,10.65
2023-02-15T18:53:52.578Z,20.85
2023-02-15T18:56:23.919Z,25.73
2023-02-15T18:58:51.904Z,14.02
2023-02-15T19:01:22.311Z,11.55
2023-02-15T19:03:52.014Z,10.85
2023-02-15T19:06:23.021Z,10.50
2023-02-15T19:08:53.355Z,11.07
2023-02-15T19:11:25.645Z,11.02
2023-02-15T19:13:55.087Z,10.97
2023-02-15T19:16:32.163Z,11.68
2023-02-15T19:19:03.233Z,11.30
2023-02-15T19:21:33.256Z,11.40
2023-02-15T19:24:04.938Z,12.15
2023-02-15T19:26:45.289Z,12.25
2023-02-15T19:29:16.164Z,10.80
2023-02-15T19:31:44.228Z,11.50
2023-02-15T19:34:17.472Z,13.18
2023-02-15T19:36:47.257Z,11.05
2023-02-15T19:39:28.024Z,11.65
2023-02-15T19:41:57.767Z,10.52
2023-02-15T19:44:26.121Z,10.75
2023-02-15T19:46:54.230Z,9.13
2023-02-15T19:49:22.216Z,10.40
2023-02-15T19:51:50.300Z,9.13
2023-02-15T19:54:30.199Z,14.80
2023-02-15T19:56:59.653Z,10.93
2023-02-15T19:59:30.079Z,10.07
2023-02-15T20:01:58.560Z,11.18
2023-02-15T20:04:27.288Z,14.40
2023-02-15T20:06:59.620Z,13.15
2023-02-15T20:09:31.322Z,10.35
2023-02-15T20:12:00.719Z,8.70
2023-02-15T20:14:28.811Z,10.77
2023-02-15T20:16:56.814Z,9.68
2023-02-15T20:19:24.921Z,11.13
2023-02-15T20:21:54.812Z,20.65
2023-02-15T20:24:25.748Z,12.93
2023-02-15T20:26:53.798Z,11.77
2023-02-15T20:29:23.318Z,9.93
2023-02-15T20:31:54.076Z,10.20
2023-02-15T20:34:23.207Z,9.40
2023-02-15T20:36:52.485Z,9.27
2023-02-15T20:39:20.689Z,10.38
2023-02-15T20:41:51.261Z,9.50
2023-02-15T20:44:23.898Z,15.38
2023-02-15T20:46:54.845Z,17.42
2023-02-15T20:49:23.940Z,14.13
2023-02-15T20:51:52.685Z,13.27
2023-02-15T20:54:22.829Z,11.25
2023-02-15T20:56:51.408Z,10.40
2023-02-15T20:59:26.677Z,10.50
2023-02-15T21:01:57.797Z,10.85
2023-02-15T21:04:32.312Z,11.30
2023-02-15T21:07:00.865Z,10.27
2023-02-15T21:09:29.556Z,11.15
2023-02-15T21:12:02.487Z,11.55
2023-02-15T21:14:31.860Z,11.82
2023-02-15T21:17:46.776Z,11.18
2023-02-15T21:19:48.694Z,11.00
2023-02-15T21:22:21.485Z,11.63
2023-02-15T21:24:53.469Z,10.35
2023-02-15T21:27:22.276Z,9.82
2023-02-15T21:29:54.375Z,10.73
2023-02-15T21:32:22.449Z,9.88
2023-02-15T21:34:50.369Z,10.77
2023-02-15T21:37:33.990Z,11.18
2023-02-15T21:40:07.095Z,11.75
2023-02-15T21:42:52.427Z,11.82
2023-02-15T21:45:41.672Z,12.13
2023-02-15T21:48:09.655Z,11.55
2023-02-15T21:50:55.853Z,11.25
2023-02-15T21:53:28.967Z,11.00
2023-02-15T21:55:59.494Z,11.63
2023-02-15T21:58:29.904Z,22.65
2023-02-15T22:01:01.648Z,14.38
2023-02-15T22:03:33.543Z,12.07
2023-02-15T22:06:03.873Z,11.77
2023-02-15T22:08:31.937Z,10.27
2023-02-15T22:10:59.888Z,11.73
2023-02-15T22:13:32.455Z,11.80
2023-02-15T22:16:03.130Z,11.00
2023-02-15T22:18:34.362Z,10.85
2023-02-15T22:21:04.315Z,12.00
2023-02-15T22:23:32.504Z,11.90
2023-02-15T22:26:04.018Z,11.68
2023-02-15T22:28:34.872Z,12.25
2023-02-15T22:31:05.355Z,12.45
2023-02-15T22:33:35.236Z,11.10
2023-02-15T22:36:03.169Z,11.68
2023-02-15T22:38:31.109Z,11.43
2023-02-15T22:41:04.949Z,11.93
2023-02-15T22:43:38.208Z,12.57
2023-02-15T22:46:14.372Z,12.52
2023-02-15T22:48:43.887Z,11.73
2023-02-15T22:51:13.933Z,13.23
2023-02-15T22:53:42.188Z,11.13
2023-02-15T22:56:17.966Z,11.63
2023-02-15T22:58:48.316Z,12.13
2023-02-15T23:01:24.580Z,11.88
2023-02-15T23:03:52.661Z,11.57
2023-02-15T23:06:20.708Z,12.35
2023-02-15T23:08:49.423Z,12.30
2023-02-15T23:11:19.281Z,11.90
2023-02-15T23:13:49.145Z,11.70
2023-02-15T23:16:18.462Z,12.98
2023-02-15T23:18:48.651Z,11.15
2023-02-15T23:21:21.330Z,11.55
2023-02-15T23:23:52.077Z,11.25
2023-02-15T23:26:23.119Z,10.82
2023-02-15T23:28:52.313Z,11.48
2023-02-15T23:31:22.468Z,11.63
2023-02-15T23:33:53.532Z,12.45
2023-02-15T23:36:31.365Z,11.88
2023-02-15T23:39:22.491Z,11.82
2023-02-15T23:41:49.500Z,10.90
2023-02-15T23:44:19.655Z,11.90
2023-02-15T23:46:49.565Z,11.45
2023-02-15T23:49:20.716Z,11.38
2023-02-15T23:51:50.157Z,11.55
2023-02-15T23:54:20.450Z,11.88
2023-02-15T23:56:51.585Z,12.40
2023-02-15T23:59:22.736Z,12.13
